Portada
METAR-TAF:

METAR-TAF

Aeroports :

Pohnpei, Micronèsia

latitud: 06-59N, longitud: 158-12E, altitud: 2 m

Observació

L'informe es va fer fa 11 hores i 9 minuts, a les 05:52 UTC
Vent 3 kt del Est/Sud-Est
Temperatura 30°C
Humitat 79%
Pressió 1010 hPa
Visibilitat: 24.1 km
Cel ennuvolat a una alçada de 1800 ft, Cumulus congestus.
Cel cobert a una alçada de 30000 ft

METAR: PTPN 210552Z 11003KT 15SM BKN018TCU OVC300 30/26 A2983 RMK TCU OHD AND SE LAST

Hora: 04:01 (17:01 UTC)

Pronòstic

L'informe es va fer fa 11 hores i 30 minuts, a les 05:31 UTC
Pronòstic vàlid del 21 a les 06 UTC al 22 a les 06 UTC
Vent 8 kt del Est
Visibilitat: 10 km
Núvols disperses a una alçada de 1800 ft
Núvols disperses a una alçada de 5000 ft
xàfecs en les proximitats
Temporalment
l' 21 a les 06 UTC al 21 a les 09 UTC
Cel ennuvolat a una alçada de 1600 ft
Cel cobert a una alçada de 4000 ft
xàfecs de pluja

TAF: PTPN 210531Z 2106/2206 08008KT P6SM VCSH SCT018 SCT050 TEMPO 2106/2109 -SHRA BKN016 OVC040

Observacions i pronòstics meteorològics de més de 4000 aeroports (METAR i TAF).

Les estacions disponibles són els punts grocs i vermells al mapa.

Posi el ratolí al punt desitjat per veure el nom de l'estació.

Feu clic per veure les observacions i els pronòstics meteorològics.

Per canviar el mapa: feu clic els botons verds amb una creu de color negre per apropar; al botó verd amb un guió per allunyar la imatge; o en les fletxes verdes per a mapes adjacents.


METAR-TAF: